createdAt,value
2023-04-26T00:01:12.101Z,1.85
2023-04-26T00:03:40.718Z,2.67
2023-04-26T00:06:10.003Z,2.30
2023-04-26T00:08:37.876Z,2.05
2023-04-26T00:11:05.888Z,2.03
2023-04-26T00:13:34.127Z,2.55
2023-04-26T00:16:02.022Z,2.13
2023-04-26T00:18:29.900Z,2.00
2023-04-26T00:20:58.542Z,1.95
2023-04-26T00:23:26.575Z,2.28
2023-04-26T00:25:54.504Z,1.98
2023-04-26T00:28:22.485Z,1.83
2023-04-26T00:30:51.308Z,2.13
2023-04-26T00:33:19.212Z,1.63
2023-04-26T00:35:47.051Z,3.35
2023-04-26T00:38:14.878Z,1.67
2023-04-26T00:40:42.729Z,2.00
2023-04-26T00:43:11.285Z,2.10
2023-04-26T00:45:39.898Z,2.15
2023-04-26T00:48:07.967Z,2.13
2023-04-26T00:50:35.935Z,2.55
2023-04-26T00:53:04.424Z,1.95
2023-04-26T00:55:32.684Z,1.70
2023-04-26T00:58:00.575Z,1.85
2023-04-26T01:00:29.599Z,2.85
2023-04-26T01:02:58.559Z,1.58
2023-04-26T01:05:26.715Z,2.40
2023-04-26T01:07:54.661Z,2.00
2023-04-26T01:10:22.698Z,2.63
2023-04-26T01:12:51.874Z,2.50
2023-04-26T01:15:19.879Z,2.42
2023-04-26T01:17:47.813Z,3.03
2023-04-26T01:20:15.802Z,2.55
2023-04-26T01:22:43.627Z,1.83
2023-04-26T01:25:12.598Z,2.47
2023-04-26T01:27:41.742Z,2.55
2023-04-26T01:30:10.282Z,1.90
2023-04-26T01:32:38.415Z,1.90
2023-04-26T01:35:07.317Z,2.13
2023-04-26T01:37:35.350Z,1.88
2023-04-26T01:40:06.554Z,2.08
2023-04-26T01:42:34.568Z,2.55
2023-04-26T01:45:02.666Z,2.17
2023-04-26T01:47:50.734Z,3.08
2023-04-26T01:50:18.858Z,2.25
2023-04-26T01:52:47.456Z,1.83
2023-04-26T01:55:15.396Z,2.35
2023-04-26T01:57:43.356Z,2.05
2023-04-26T02:00:11.680Z,3.42
2023-04-26T02:02:42.795Z,2.20
2023-04-26T02:05:12.456Z,2.38
2023-04-26T02:07:40.502Z,2.38
2023-04-26T02:10:09.023Z,1.88
2023-04-26T02:12:36.872Z,2.17
2023-04-26T02:15:06.205Z,2.22
2023-04-26T02:17:37.595Z,2.40
2023-04-26T02:20:07.208Z,2.08
2023-04-26T02:22:35.082Z,2.67
2023-04-26T02:25:03.405Z,2.70
2023-04-26T02:27:31.752Z,2.00
2023-04-26T02:29:59.664Z,2.75
2023-04-26T02:32:27.977Z,2.10
2023-04-26T02:34:56.050Z,2.40
2023-04-26T02:37:23.935Z,2.50
2023-04-26T02:39:52.096Z,2.65
2023-04-26T02:42:20.103Z,2.30
2023-04-26T02:44:48.429Z,2.97
2023-04-26T02:47:16.829Z,2.87
2023-04-26T02:49:44.721Z,2.67
2023-04-26T02:52:12.580Z,2.25
2023-04-26T02:54:40.688Z,2.57
2023-04-26T02:57:08.611Z,2.50
2023-04-26T02:59:36.577Z,2.25
2023-04-26T03:02:04.512Z,3.13
2023-04-26T03:04:34.303Z,2.13
2023-04-26T03:07:03.964Z,2.20
2023-04-26T03:09:32.049Z,2.00
2023-04-26T03:12:00.134Z,3.45
2023-04-26T03:14:28.129Z,1.80
2023-04-26T03:16:57.927Z,3.20
2023-04-26T03:19:27.456Z,2.55
2023-04-26T03:21:56.925Z,2.63
2023-04-26T03:24:25.046Z,2.43
2023-04-26T03:26:52.915Z,2.20
2023-04-26T03:29:21.081Z,2.38
2023-04-26T03:31:48.983Z,2.58
2023-04-26T03:34:16.923Z,3.23
2023-04-26T03:36:44.919Z,2.73
2023-04-26T03:39:12.816Z,2.40
2023-04-26T03:41:41.297Z,3.67
2023-04-26T03:44:12.458Z,2.05
2023-04-26T03:46:40.944Z,3.13
2023-04-26T03:49:08.856Z,2.58
2023-04-26T03:51:36.958Z,2.70
2023-04-26T03:54:05.099Z,2.70
2023-04-26T03:56:32.997Z,2.60
2023-04-26T03:59:02.963Z,2.73
2023-04-26T04:01:33.102Z,2.00
2023-04-26T04:04:01.297Z,2.50
2023-04-26T04:06:30.993Z,1.93
2023-04-26T04:08:58.877Z,2.80
2023-04-26T04:11:26.796Z,1.70
2023-04-26T04:13:54.694Z,2.87
2023-04-26T04:16:23.057Z,2.87
2023-04-26T04:18:51.777Z,2.03
2023-04-26T04:21:19.830Z,2.40
2023-04-26T04:23:48.084Z,2.10
2023-04-26T04:26:17.391Z,2.53
2023-04-26T04:28:47.196Z,1.90
2023-04-26T04:31:15.844Z,2.73
2023-04-26T04:33:43.900Z,2.00
2023-04-26T04:36:13.128Z,2.67
2023-04-26T04:38:41.249Z,2.23
2023-04-26T04:41:10.254Z,2.60
2023-04-26T04:43:38.486Z,2.43
2023-04-26T04:46:07.222Z,2.57
2023-04-26T04:48:35.530Z,2.07
2023-04-26T04:51:03.462Z,2.23
2023-04-26T04:53:31.457Z,2.93
2023-04-26T04:55:59.947Z,2.30
2023-04-26T04:58:27.870Z,3.07
2023-04-26T05:00:56.770Z,2.97
2023-04-26T05:03:28.111Z,3.20
2023-04-26T05:05:56.517Z,2.70
2023-04-26T05:08:24.443Z,3.13
2023-04-26T05:10:53.353Z,4.07
2023-04-26T05:13:21.358Z,2.87
2023-04-26T05:15:49.263Z,2.70
2023-04-26T05:18:17.481Z,2.53
2023-04-26T05:20:45.405Z,2.42
2023-04-26T05:23:13.439Z,3.25
2023-04-26T05:25:41.384Z,2.10
2023-04-26T05:28:27.767Z,3.28
2023-04-26T05:31:07.995Z,3.72
2023-04-26T05:33:55.958Z,2.85
2023-04-26T05:39:40.294Z,3.30
2023-04-26T05:42:08.620Z,2.50
2023-04-26T05:44:37.118Z,3.58
2023-04-26T05:47:05.306Z,2.05
2023-04-26T05:49:33.224Z,3.55
2023-04-26T05:52:01.290Z,2.47
2023-04-26T05:54:29.567Z,2.95
2023-04-26T05:56:59.135Z,3.00
2023-04-26T05:59:32.765Z,3.05
2023-04-26T06:02:01.471Z,2.95
2023-04-26T06:04:30.387Z,2.75
2023-04-26T06:07:12.062Z,3.08
2023-04-26T06:09:40.397Z,3.30
2023-04-26T06:12:08.485Z,4.30
2023-04-26T06:14:41.984Z,2.85
2023-04-26T06:17:15.678Z,2.60
2023-04-26T06:19:44.307Z,3.58
2023-04-26T06:22:12.339Z,2.75
2023-04-26T06:24:41.410Z,2.95
2023-04-26T06:27:09.475Z,3.28
2023-04-26T06:29:39.107Z,4.03
2023-04-26T06:32:08.031Z,3.08
2023-04-26T06:34:37.183Z,2.63
2023-04-26T06:37:06.767Z,2.83
2023-04-26T06:39:38.378Z,3.30
2023-04-26T06:42:06.790Z,3.72
2023-04-26T06:44:51.953Z,3.08
2023-04-26T06:47:20.135Z,2.65
2023-04-26T06:49:48.275Z,3.17
2023-04-26T06:52:16.250Z,2.00
2023-04-26T06:54:56.126Z,3.15
2023-04-26T06:57:24.801Z,2.08
2023-04-26T06:59:52.844Z,1.90
2023-04-26T07:02:22.987Z,2.38
2023-04-26T07:04:51.677Z,1.60
2023-04-26T07:07:19.797Z,2.70
2023-04-26T07:09:47.759Z,2.40
2023-04-26T07:12:16.715Z,2.72
2023-04-26T07:14:44.706Z,2.17
2023-04-26T07:17:12.524Z,1.83
2023-04-26T07:19:40.756Z,1.83
2023-04-26T07:22:08.931Z,1.90
2023-04-26T07:24:36.804Z,2.10
2023-04-26T07:27:04.754Z,1.85
2023-04-26T07:29:32.689Z,2.15
2023-04-26T07:32:00.636Z,1.80
2023-04-26T07:34:28.576Z,1.58
2023-04-26T07:36:56.659Z,1.50
2023-04-26T07:39:24.640Z,1.70
2023-04-26T07:41:52.501Z,1.88
2023-04-26T07:44:20.425Z,1.65
2023-04-26T07:46:49.428Z,1.77
2023-04-26T07:49:19.342Z,1.98
2023-04-26T07:51:47.245Z,1.38
2023-04-26T07:54:15.251Z,1.77
2023-04-26T07:56:43.084Z,1.63
2023-04-26T07:59:11.352Z,1.90
2023-04-26T08:01:39.304Z,1.95
2023-04-26T08:04:08.246Z,1.63
2023-04-26T08:06:37.986Z,1.50
2023-04-26T08:09:05.818Z,1.75
2023-04-26T08:11:33.757Z,1.58
2023-04-26T08:14:01.679Z,1.42
2023-04-26T08:16:29.711Z,1.50
2023-04-26T08:19:02.838Z,1.45
2023-04-26T08:21:31.713Z,1.65
2023-04-26T08:24:00.696Z,1.60
2023-04-26T08:26:28.587Z,1.40
2023-04-26T08:28:57.217Z,1.77
2023-04-26T08:31:25.385Z,1.80
2023-04-26T08:33:53.617Z,1.77
2023-04-26T08:36:22.772Z,1.63
2023-04-26T08:38:50.979Z,1.55
2023-04-26T08:41:23.804Z,1.65
2023-04-26T08:43:52.885Z,1.65
2023-04-26T08:46:21.674Z,1.40
2023-04-26T08:48:55.127Z,1.75
2023-04-26T08:51:23.234Z,1.63
2023-04-26T08:53:53.107Z,1.70
2023-04-26T08:56:24.196Z,1.67
2023-04-26T08:58:52.737Z,1.40
2023-04-26T09:01:21.650Z,1.30
2023-04-26T09:03:50.565Z,1.02
2023-04-26T09:06:19.349Z,1.52
2023-04-26T09:08:47.718Z,1.33
2023-04-26T09:11:15.579Z,1.80
2023-04-26T09:13:43.473Z,1.50
2023-04-26T09:16:11.521Z,1.55
2023-04-26T09:18:52.203Z,1.88
2023-04-26T09:21:20.885Z,1.20
2023-04-26T09:24:04.654Z,1.35
2023-04-26T09:26:32.634Z,1.55
2023-04-26T09:29:20.232Z,1.45
2023-04-26T09:31:50.105Z,1.65
2023-04-26T09:34:18.341Z,1.73
2023-04-26T09:36:57.902Z,1.58
2023-04-26T09:39:37.389Z,1.60
2023-04-26T09:42:09.451Z,1.50
2023-04-26T09:44:38.154Z,1.70
2023-04-26T09:47:12.019Z,1.75
2023-04-26T09:49:51.670Z,2.10
2023-04-26T09:52:20.384Z,1.35
2023-04-26T09:54:53.071Z,1.65
2023-04-26T09:57:22.360Z,1.52
2023-04-26T09:59:54.344Z,1.50
2023-04-26T10:02:27.712Z,1.65
2023-04-26T10:05:00.195Z,1.38
2023-04-26T10:07:28.891Z,1.50
2023-04-26T10:09:58.536Z,2.05
2023-04-26T10:12:27.980Z,1.60
2023-04-26T10:14:57.542Z,1.27
2023-04-26T10:17:25.723Z,1.80
2023-04-26T10:19:58.936Z,1.70
2023-04-26T10:22:32.356Z,1.52
2023-04-26T10:25:00.794Z,1.95
2023-04-26T10:27:56.106Z,1.83
2023-04-26T10:30:25.220Z,1.63
2023-04-26T10:32:53.406Z,1.77
2023-04-26T10:35:22.491Z,2.00
2023-04-26T10:38:02.592Z,2.03
2023-04-26T10:40:39.849Z,1.60
2023-04-26T10:43:10.959Z,1.88
2023-04-26T10:45:39.835Z,1.50
2023-04-26T10:48:24.470Z,1.27
2023-04-26T10:51:18.818Z,1.35
2023-04-26T10:53:46.851Z,1.80
2023-04-26T10:56:23.914Z,1.67
2023-04-26T11:01:42.953Z,1.30
2023-04-26T11:04:12.482Z,1.83
2023-04-26T11:07:00.697Z,1.65
2023-04-26T11:09:40.813Z,1.33
2023-04-26T11:12:13.926Z,1.83
2023-04-26T11:14:42.733Z,1.65
2023-04-26T11:17:11.394Z,1.75
2023-04-26T11:19:41.288Z,1.92
2023-04-26T11:22:09.469Z,1.80
2023-04-26T11:24:38.805Z,2.42
2023-04-26T11:27:10.865Z,1.80
2023-04-26T11:29:39.147Z,2.00
2023-04-26T11:32:08.235Z,2.13
2023-04-26T11:34:38.072Z,1.98
2023-04-26T11:37:07.026Z,1.80
2023-04-26T11:39:37.312Z,2.08
2023-04-26T11:42:09.634Z,2.13
2023-04-26T11:44:40.492Z,1.98
2023-04-26T11:47:08.788Z,1.92
2023-04-26T11:49:37.798Z,2.03
2023-04-26T11:52:06.437Z,1.63
2023-04-26T11:54:36.606Z,2.05
2023-04-26T11:57:18.435Z,1.50
2023-04-26T11:59:46.826Z,1.67
2023-04-26T12:02:14.992Z,1.70
2023-04-26T12:04:44.395Z,1.45
2023-04-26T12:07:12.414Z,1.60
2023-04-26T12:09:42.648Z,1.40
2023-04-26T12:12:11.745Z,1.60
2023-04-26T12:14:40.852Z,1.48
2023-04-26T12:17:10.333Z,1.65
2023-04-26T12:19:40.181Z,1.73
2023-04-26T12:22:08.859Z,1.37
2023-04-26T12:24:37.783Z,1.52
2023-04-26T12:27:06.944Z,1.40
2023-04-26T12:29:35.610Z,1.50
2023-04-26T12:32:04.577Z,1.70
2023-04-26T12:34:32.524Z,1.52
2023-04-26T12:37:01.630Z,1.45
2023-04-26T12:39:30.653Z,1.95
2023-04-26T12:41:58.640Z,1.73
2023-04-26T12:44:27.075Z,1.42
2023-04-26T12:46:54.971Z,2.05
2023-04-26T12:49:22.954Z,1.45
2023-04-26T12:51:50.857Z,2.08
2023-04-26T12:54:18.880Z,1.70
2023-04-26T12:56:48.168Z,1.52
2023-04-26T12:59:16.159Z,1.90
2023-04-26T13:01:44.362Z,1.40
2023-04-26T13:04:12.436Z,1.60
2023-04-26T13:06:40.604Z,1.63
2023-04-26T13:09:08.717Z,2.42
2023-04-26T13:11:36.766Z,2.72
2023-04-26T13:14:06.754Z,1.92
2023-04-26T13:16:34.875Z,1.70
2023-04-26T13:19:03.925Z,1.73
2023-04-26T13:21:32.616Z,1.80
2023-04-26T13:24:00.746Z,1.90
2023-04-26T13:26:29.731Z,2.05
2023-04-26T13:28:57.561Z,2.10
2023-04-26T13:31:25.669Z,2.00
2023-04-26T13:33:53.735Z,1.70
2023-04-26T13:36:21.652Z,1.70
2023-04-26T13:38:49.523Z,1.42
2023-04-26T13:41:17.472Z,1.80
2023-04-26T13:43:45.523Z,1.42
2023-04-26T13:46:13.548Z,1.48
2023-04-26T13:48:41.608Z,1.85
2023-04-26T13:51:09.483Z,1.40
2023-04-26T13:53:37.435Z,1.85
2023-04-26T13:56:05.763Z,1.92
2023-04-26T13:58:33.686Z,1.60
2023-04-26T14:01:02.573Z,1.50
2023-04-26T14:03:31.356Z,1.48
2023-04-26T14:05:59.394Z,1.40
2023-04-26T14:08:27.297Z,1.90
2023-04-26T14:10:55.396Z,1.75
2023-04-26T14:13:23.269Z,1.70
2023-04-26T14:15:51.184Z,1.77
2023-04-26T14:18:19.269Z,1.70
2023-04-26T14:20:48.110Z,2.03
2023-04-26T14:23:18.041Z,1.50
2023-04-26T14:25:46.164Z,1.85
2023-04-26T14:28:16.698Z,1.70
2023-04-26T14:30:44.881Z,1.65
2023-04-26T14:33:13.160Z,1.65
2023-04-26T14:35:41.401Z,2.15
2023-04-26T14:38:09.321Z,1.65
2023-04-26T14:40:37.470Z,1.45
2023-04-26T14:43:05.749Z,1.30
2023-04-26T14:45:44.198Z,1.42
2023-04-26T14:48:12.789Z,1.42
2023-04-26T14:50:41.240Z,2.00
2023-04-26T14:53:09.873Z,1.70
2023-04-26T14:55:37.876Z,1.63
2023-04-26T14:58:05.795Z,1.92
2023-04-26T15:00:33.818Z,1.70
2023-04-26T15:03:01.896Z,2.53
2023-04-26T15:05:29.917Z,1.80
2023-04-26T15:07:57.853Z,2.47
2023-04-26T15:10:26.003Z,2.15
2023-04-26T15:12:53.849Z,1.90
2023-04-26T15:15:22.599Z,1.90
2023-04-26T15:17:50.790Z,2.10
2023-04-26T15:20:18.804Z,2.15
2023-04-26T15:22:46.945Z,2.28
2023-04-26T15:25:15.118Z,1.90
2023-04-26T15:27:42.989Z,2.20
2023-04-26T15:30:12.868Z,2.08
2023-04-26T15:32:41.157Z,1.52
2023-04-26T15:35:13.875Z,1.88
2023-04-26T15:37:41.961Z,1.73
2023-04-26T15:40:10.649Z,1.92
2023-04-26T15:42:39.284Z,1.92
2023-04-26T15:45:07.745Z,1.75
2023-04-26T15:47:37.022Z,1.67
2023-04-26T15:50:06.146Z,2.17
2023-04-26T15:52:38.556Z,2.05
2023-04-26T15:55:07.480Z,1.98
2023-04-26T15:57:35.791Z,2.33
2023-04-26T16:00:05.997Z,1.90
2023-04-26T16:02:35.588Z,1.90
2023-04-26T16:05:04.419Z,1.90
2023-04-26T16:07:32.642Z,2.08
2023-04-26T16:10:00.605Z,2.40
2023-04-26T16:12:28.534Z,2.00
2023-04-26T16:14:57.278Z,1.90
2023-04-26T16:17:25.263Z,2.47
2023-04-26T16:19:53.119Z,2.15
2023-04-26T16:22:21.072Z,1.70
2023-04-26T16:24:48.952Z,2.00
2023-04-26T16:27:17.088Z,1.67
2023-04-26T16:29:45.018Z,1.95
2023-04-26T16:32:13.213Z,1.77
2023-04-26T16:34:41.883Z,2.10
2023-04-26T16:37:09.955Z,1.65
2023-04-26T16:39:37.870Z,2.13
2023-04-26T16:42:05.969Z,2.10
2023-04-26T16:44:34.044Z,2.15
2023-04-26T16:47:03.943Z,1.88
2023-04-26T16:49:32.119Z,1.75
2023-04-26T16:52:00.104Z,1.83
2023-04-26T16:54:28.076Z,1.65
2023-04-26T16:56:56.123Z,2.03
2023-04-26T16:59:24.296Z,2.10
2023-04-26T17:01:53.430Z,1.83
2023-04-26T17:04:21.493Z,2.00
2023-04-26T17:06:49.709Z,1.63
2023-04-26T17:09:18.587Z,2.00
2023-04-26T17:11:46.958Z,1.88
2023-04-26T17:14:14.861Z,1.92
2023-04-26T17:16:42.754Z,1.90
2023-04-26T17:19:10.964Z,1.98
2023-04-26T17:21:38.902Z,1.83
2023-04-26T17:24:07.770Z,1.88
2023-04-26T17:26:35.785Z,2.33
2023-04-26T17:29:03.815Z,2.88
2023-04-26T17:31:31.716Z,2.00
2023-04-26T17:33:59.619Z,2.47
2023-04-26T17:36:27.845Z,2.03
2023-04-26T17:38:55.769Z,1.92
2023-04-26T17:41:24.907Z,1.58
2023-04-26T17:43:52.803Z,1.60
2023-04-26T17:46:20.759Z,2.10
2023-04-26T17:48:48.609Z,2.70
2023-04-26T17:51:16.581Z,2.15
2023-04-26T17:53:44.593Z,1.80
2023-04-26T17:56:12.622Z,2.08
2023-04-26T17:58:40.711Z,1.80
2023-04-26T18:01:08.643Z,1.60
2023-04-26T18:03:36.815Z,2.42
2023-04-26T18:06:05.651Z,1.50
2023-04-26T18:08:33.979Z,2.55
2023-04-26T18:11:01.928Z,2.00
2023-04-26T18:13:29.910Z,1.70
2023-04-26T18:15:58.178Z,1.75
2023-04-26T18:18:27.800Z,2.08
2023-04-26T18:20:56.253Z,2.20
2023-04-26T18:23:24.157Z,2.20
2023-04-26T18:25:52.127Z,2.30
2023-04-26T18:28:20.096Z,2.08
2023-04-26T18:30:48.036Z,2.10
2023-04-26T18:33:16.283Z,1.92
2023-04-26T18:35:44.785Z,2.42
2023-04-26T18:38:12.722Z,3.22
2023-04-26T18:40:44.227Z,2.25
2023-04-26T18:43:12.378Z,2.40
2023-04-26T18:45:41.485Z,2.08
2023-04-26T18:48:09.841Z,2.20
2023-04-26T18:50:37.825Z,2.80
2023-04-26T18:53:05.757Z,2.53
2023-04-26T18:55:33.635Z,2.55
2023-04-26T18:58:01.858Z,1.85
2023-04-26T19:00:29.767Z,2.47
2023-04-26T19:02:57.929Z,2.80
2023-04-26T19:05:26.854Z,2.13
2023-04-26T19:07:54.763Z,2.28
2023-04-26T19:10:22.727Z,2.20
2023-04-26T19:12:50.626Z,2.22
2023-04-26T19:15:18.476Z,2.30
2023-04-26T19:17:46.773Z,2.28
2023-04-26T19:20:15.140Z,2.17
2023-04-26T19:22:46.288Z,2.72
2023-04-26T19:25:14.816Z,2.38
2023-04-26T19:27:42.836Z,2.72
2023-04-26T19:30:11.145Z,1.98
2023-04-26T19:32:39.149Z,2.47
2023-04-26T19:35:07.396Z,2.15
2023-04-26T19:37:35.514Z,2.55
2023-04-26T19:40:06.031Z,2.00
2023-04-26T19:42:33.932Z,2.35
2023-04-26T19:45:01.825Z,2.30
2023-04-26T19:47:29.810Z,2.40
2023-04-26T19:49:59.364Z,2.05
2023-04-26T19:52:27.259Z,2.08
2023-04-26T19:54:55.477Z,2.38
2023-04-26T19:57:23.508Z,2.60
2023-04-26T19:59:51.353Z,2.42
2023-04-26T20:02:20.374Z,2.40
2023-04-26T20:04:48.271Z,2.42
2023-04-26T20:07:16.534Z,2.70
2023-04-26T20:09:44.528Z,2.53
2023-04-26T20:12:12.496Z,2.60
2023-04-26T20:14:40.636Z,1.98
2023-04-26T20:17:08.496Z,2.42
2023-04-26T20:19:36.828Z,2.53
2023-04-26T20:22:04.781Z,2.00
2023-04-26T20:24:33.109Z,2.50
2023-04-26T20:27:01.892Z,2.15
2023-04-26T20:29:29.787Z,2.28
2023-04-26T20:31:57.695Z,2.78
2023-04-26T20:34:25.672Z,2.63
2023-04-26T20:36:53.569Z,2.10
2023-04-26T20:39:21.877Z,2.88
2023-04-26T20:41:49.826Z,2.85
2023-04-26T20:44:18.707Z,2.63
2023-04-26T20:46:46.635Z,2.80
2023-04-26T20:49:15.752Z,3.05
2023-04-26T20:51:43.770Z,2.33
2023-04-26T20:54:12.708Z,2.88
2023-04-26T20:56:41.037Z,3.30
2023-04-26T20:59:09.246Z,3.83
2023-04-26T21:01:37.428Z,2.80
2023-04-26T21:04:05.642Z,3.33
2023-04-26T21:06:36.747Z,3.03
2023-04-26T21:09:05.296Z,2.47
2023-04-26T21:11:33.413Z,3.33
2023-04-26T21:14:01.587Z,3.00
2023-04-26T21:16:30.645Z,3.58
2023-04-26T21:19:00.637Z,2.55
2023-04-26T21:21:28.670Z,3.33
2023-04-26T21:23:56.556Z,2.97
2023-04-26T21:26:24.468Z,3.15
2023-04-26T21:28:52.303Z,2.70
2023-04-26T21:31:20.430Z,3.25
2023-04-26T21:33:48.364Z,3.03
2023-04-26T21:36:16.416Z,3.35
2023-04-26T21:38:44.448Z,3.65
2023-04-26T21:41:12.349Z,3.45
2023-04-26T21:43:40.364Z,2.67
2023-04-26T21:46:08.391Z,2.67
2023-04-26T21:48:38.824Z,2.80
2023-04-26T21:51:06.707Z,2.30
2023-04-26T21:53:34.627Z,3.28
2023-04-26T21:56:04.688Z,2.35
2023-04-26T21:58:34.066Z,2.30
2023-04-26T22:01:09.822Z,3.60
2023-04-26T22:03:38.099Z,2.75
2023-04-26T22:06:07.529Z,2.95
2023-04-26T22:08:35.649Z,2.13
2023-04-26T22:11:03.625Z,2.45
2023-04-26T22:13:32.277Z,2.28
2023-04-26T22:16:00.349Z,2.95
2023-04-26T22:18:29.227Z,2.47
2023-04-26T22:20:57.186Z,2.40
2023-04-26T22:23:25.690Z,2.30
2023-04-26T22:25:53.571Z,2.92
2023-04-26T22:28:21.496Z,3.28
2023-04-26T22:30:51.425Z,2.75
2023-04-26T22:33:19.352Z,2.83
2023-04-26T22:35:47.420Z,2.60
2023-04-26T22:38:15.533Z,3.13
2023-04-26T22:40:43.464Z,2.40
2023-04-26T22:43:11.310Z,2.42
2023-04-26T22:45:39.634Z,2.47
2023-04-26T22:48:07.545Z,2.70
2023-04-26T22:50:35.609Z,2.63
2023-04-26T22:53:03.540Z,2.67
2023-04-26T22:55:32.566Z,2.35
2023-04-26T22:58:00.438Z,2.80
2023-04-26T23:00:28.336Z,2.33
2023-04-26T23:02:56.239Z,2.38
2023-04-26T23:05:24.184Z,2.20
2023-04-26T23:07:52.649Z,2.40
2023-04-26T23:10:20.997Z,2.67
2023-04-26T23:12:50.006Z,2.55
2023-04-26T23:15:18.380Z,1.92
2023-04-26T23:17:46.587Z,2.90
2023-04-26T23:20:15.772Z,2.45
2023-04-26T23:22:43.988Z,2.95
2023-04-26T23:25:12.100Z,2.60
2023-04-26T23:27:39.977Z,2.90
2023-04-26T23:30:08.437Z,2.20
2023-04-26T23:32:36.501Z,2.53
2023-04-26T23:35:05.418Z,2.17
2023-04-26T23:37:33.618Z,2.42
2023-04-26T23:40:01.575Z,2.70
2023-04-26T23:42:29.469Z,2.88
2023-04-26T23:44:57.340Z,2.35
2023-04-26T23:47:25.514Z,2.13
2023-04-26T23:49:53.416Z,2.97
2023-04-26T23:52:21.305Z,2.50
2023-04-26T23:54:49.199Z,2.80
2023-04-26T23:57:17.042Z,2.03
2023-04-26T23:59:48.340Z,2.63
